Upstream stations:
Downstream station:
SHEF ID: BRIO2 Canadian River at Bridgeport, OK
STATION TYPE:
Regulating: Stage = 15.00, Flow = 8545
STAGE RIV-FLOW
ft cfs
Ccp-Rev Ccp-Rev
(US/Central)
05/10 00:00 12.60 2190
05/10 01:00 12.59 2176
05/10 02:00 12.59 2176
05/10 03:00 12.58 2161
05/10 04:00 12.57 2146
05/10 05:00 12.57 2146
05/10 06:00 12.59 2176
05/10 07:00 13.14 3092
05/10 08:00 12.99 2820
05/10 09:00 12.94 2733
05/10 10:00 12.90 2665
05/10 11:00 12.88 2631
05/10 12:00 12.86 2598
05/10 13:00 12.85 2581
05/10 14:00 12.82 2532
05/10 15:00 12.81 2516
05/10 16:00 12.80 2500
05/10 17:00 12.80 2500
05/10 18:00 12.80 2500
05/10 19:00 12.70 2341
05/10 20:00 12.65 2265
05/10 21:00 12.63 2235
05/10 22:00 9.85 125
05/10 23:00 ---- ----